Time;durP1;ratioP1;P1;durP2;ratioP2;P2;SDS_P1;SDS_P2;PMS_P1;PMS_P2;Temp;Humidity;BMP_temperature;BMP_pressure;BME280_temperature;BME280_humidity;BME280_pressure;Samples;Min_cycle;Max_cycle;Signal;HPM_P1;HPM_P2
2023/03/11 00:00:43;;;;;;;3.40;2.35;;;;;;;6.01;58.43;98665.81;6218388;23;20393;-80
2023/03/11 00:03:12;;;;;;;1.92;1.17;;;;;;;5.98;58.54;98652.03;6218324;23;20177;-80
2023/03/11 00:05:40;;;;;;;2.15;1.40;;;;;;;6.01;58.06;98644.97;6215170;23;20387;-80
2023/03/11 00:08:10;;;;;;;1.10;1.00;;;;;;;6.01;57.70;98655.38;6219270;23;20186;-80
2023/03/11 00:10:39;;;;;;;1.80;1.23;;;;;;;5.98;57.50;98661.63;6219232;23;20237;-81
2023/03/11 00:13:07;;;;;;;1.20;0.95;;;;;;;6.00;57.18;98653.72;6218525;23;20216;-80
2023/03/11 00:15:33;;;;;;;2.65;1.70;;;;;;;6.03;56.84;98658.75;6216552;23;20172;-80
2023/03/11 00:17:58;;;;;;;1.67;0.70;;;;;;;6.06;56.97;98653.34;6215364;23;20504;-81
2023/03/11 00:20:31;;;;;;;1.43;1.00;;;;;;;6.08;56.54;98654.94;6215109;23;20370;-80
2023/03/11 00:22:57;;;;;;;1.10;1.00;;;;;;;6.11;56.76;98666.94;6215834;23;20194;-80
2023/03/11 00:25:26;;;;;;;0.88;0.82;;;;;;;6.09;56.71;98664.41;6218123;23;20372;-80
2023/03/11 00:27:51;;;;;;;1.17;0.90;;;;;;;6.09;56.35;98663.59;6218641;23;20177;-80
2023/03/11 00:30:18;;;;;;;1.20;1.03;;;;;;;6.07;56.21;98655.00;6218573;23;20185;-80
2023/03/11 00:32:43;;;;;;;0.80;0.68;;;;;;;6.05;55.82;98657.72;6215494;23;20192;-81
2023/03/11 00:35:13;;;;;;;1.20;0.90;;;;;;;6.08;55.62;98654.09;6214381;23;20401;-80
2023/03/11 00:37:38;;;;;;;0.80;0.80;;;;;;;6.09;55.63;98668.78;6214063;23;20162;-80
2023/03/11 00:40:07;;;;;;;1.07;0.90;;;;;;;6.10;55.08;98665.25;6212501;23;20473;-80
2023/03/11 00:42:34;;;;;;;1.00;0.90;;;;;;;6.09;55.21;98668.78;6186655;23;20483;-80
2023/03/11 00:44:59;;;;;;;1.40;0.83;;;;;;;6.06;55.25;98663.78;6213048;23;20682;-80
2023/03/11 00:47:25;;;;;;;1.67;1.23;;;;;;;6.06;55.03;98668.97;6209889;23;20179;-80
2023/03/11 00:49:50;;;;;;;1.50;1.00;;;;;;;6.07;54.97;98676.69;6186003;23;20490;-81
2023/03/11 00:52:16;;;;;;;1.37;1.20;;;;;;;6.07;54.54;98668.03;6213979;23;20187;-80
2023/03/11 00:54:41;;;;;;;1.00;0.80;;;;;;;6.04;54.45;98671.66;6215242;23;20198;-80
2023/03/11 00:57:07;;;;;;;0.80;0.80;;;;;;;6.02;54.33;98677.91;6209384;23;20163;-80
2023/03/11 00:59:34;;;;;;;1.00;0.90;;;;;;;6.02;54.36;98677.91;6186446;23;20711;-80
2023/03/11 01:01:59;;;;;;;2.20;1.15;;;;;;;6.01;54.29;98671.84;6185149;23;20469;-80
2023/03/11 01:04:25;;;;;;;2.47;1.10;;;;;;;6.03;54.39;98679.59;6211774;23;20424;-80
2023/03/11 01:06:51;;;;;;;1.30;1.20;;;;;;;6.05;54.65;98689.00;6211259;23;20162;-80
2023/03/11 01:09:16;;;;;;;1.17;0.90;;;;;;;6.07;54.74;98697.56;6209285;23;20262;-80
2023/03/11 01:11:42;;;;;;;1.10;0.90;;;;;;;6.08;54.34;98691.44;6184319;23;20644;-80
2023/03/11 01:14:08;;;;;;;0.83;0.80;;;;;;;6.11;54.44;98683.41;6212590;23;20181;-80
2023/03/11 01:16:33;;;;;;;0.97;0.90;;;;;;;6.17;54.41;98697.84;6214302;23;20173;-80
2023/03/11 01:18:58;;;;;;;1.10;1.00;;;;;;;6.15;54.44;98702.31;6187112;23;20211;-80
2023/03/11 01:21:24;;;;;;;1.17;0.90;;;;;;;6.12;54.29;98694.69;6184131;23;20215;-80
2023/03/11 01:23:49;;;;;;;1.17;0.90;;;;;;;6.12;54.76;98699.88;6182659;23;20184;-80
2023/03/11 01:26:15;;;;;;;1.50;1.20;;;;;;;6.11;54.46;98687.78;6208437;23;20172;-80
2023/03/11 01:28:40;;;;;;;1.20;1.00;;;;;;;6.10;54.55;98681.75;6210929;23;20252;-80
2023/03/11 01:31:08;;;;;;;1.67;1.20;;;;;;;6.08;54.46;98672.34;6208116;23;20195;-80
2023/03/11 01:33:34;;;;;;;2.85;1.08;;;;;;;6.03;54.88;98675.22;6208737;23;20657;-80
2023/03/11 01:36:00;;;;;;;1.43;1.33;;;;;;;5.98;54.30;98665.06;6209100;23;20175;-80
2023/03/11 01:38:26;;;;;;;1.15;0.88;;;;;;;5.95;54.83;98672.22;6211004;23;20247;-80
2023/03/11 01:40:52;;;;;;;1.00;0.93;;;;;;;5.90;54.96;98690.72;6183853;23;20203;-80
2023/03/11 01:43:41;;;;;;;1.27;0.90;;;;;;;5.83;55.28;98697.19;6212647;23;20684;-80
2023/03/11 01:46:50;;;;;;;1.38;1.08;;;;;;;5.81;55.13;98680.84;6187228;23;20398;-80
2023/03/11 01:49:16;;;;;;;6.05;1.30;;;;;;;5.76;55.33;98682.88;6190510;23;20171;-80
2023/03/11 01:51:44;;;;;;;2.60;1.10;;;;;;;5.71;55.36;98684.91;6185615;23;20216;-80
2023/03/11 01:54:15;;;;;;;1.25;1.15;;;;;;;5.70;55.14;98667.59;6212266;23;20456;-80
2023/03/11 01:56:41;;;;;;;1.10;0.90;;;;;;;5.69;55.20;98651.13;6185347;23;20171;-80
2023/03/11 01:59:10;;;;;;;1.17;1.08;;;;;;;5.68;55.02;98659.88;6187010;23;20163;-80
2023/03/11 02:01:47;;;;;;;1.15;0.70;;;;;;;5.65;54.84;98657.44;6212278;23;20198;-80
2023/03/11 02:04:12;;;;;;;1.13;1.00;;;;;;;5.63;54.53;98672.31;6211465;23;20159;-80
2023/03/11 02:06:38;;;;;;;0.80;0.80;;;;;;;5.61;54.48;98678.56;6185402;23;20628;-80
2023/03/11 02:09:03;;;;;;;1.40;0.90;;;;;;;5.60;54.66;98666.47;6212942;23;20853;-80
2023/03/11 02:11:30;;;;;;;1.98;0.95;;;;;;;5.58;54.71;98670.91;6188769;23;20696;-80
2023/03/11 02:14:00;;;;;;;3.15;1.05;;;;;;;5.55;54.47;98674.53;6213989;23;20169;-80
2023/03/11 02:16:26;;;;;;;3.58;0.95;;;;;;;5.52;54.25;98675.56;6212177;23;20158;-80
2023/03/11 02:18:52;;;;;;;1.57;0.97;;;;;;;5.49;54.14;98680.94;6195267;23;20461;-80
2023/03/11 02:21:17;;;;;;;1.93;1.00;;;;;;;5.46;54.58;98688.94;6197183;23;20232;-80
2023/03/11 02:23:54;;;;;;;1.83;1.20;;;;;;;5.45;54.68;98689.00;6226237;23;20154;-80
2023/03/11 02:26:26;;;;;;;1.98;1.30;;;;;;;5.43;54.66;98685.69;6195073;23;20170;-80
2023/03/11 02:28:54;;;;;;;1.10;0.90;;;;;;;5.42;55.08;98684.81;6213906;23;20622;-80
2023/03/11 02:31:20;;;;;;;1.45;1.13;;;;;;;5.41;54.60;98682.31;6186554;23;20226;-80
2023/03/11 02:33:49;;;;;;;1.52;0.90;;;;;;;5.39;54.84;98685.00;6220802;23;20223;-80
2023/03/11 02:36:38;;;;;;;1.60;1.08;;;;;;;5.36;55.07;98676.53;6189826;23;20536;-80
2023/03/11 02:39:07;;;;;;;1.25;0.90;;;;;;;5.34;55.34;98687.03;6188338;23;20200;-80
2023/03/11 02:41:37;;;;;;;1.55;1.05;;;;;;;5.32;55.40;98666.28;6187060;23;20196;-81
2023/03/11 02:44:08;;;;;;;1.30;1.20;;;;;;;5.33;55.17;98659.31;6217431;23;20245;-80
2023/03/11 02:46:35;;;;;;;1.20;1.00;;;;;;;5.30;55.57;98646.47;6195154;23;20235;-80
2023/03/11 02:49:01;;;;;;;1.35;0.98;;;;;;;5.27;55.48;98654.47;6220308;23;20179;-80
2023/03/11 02:51:27;;;;;;;0.90;0.80;;;;;;;5.23;55.53;98643.38;6188200;23;20200;-81
2023/03/11 02:53:58;;;;;;;2.88;1.15;;;;;;;5.20;55.52;98634.91;6214534;23;20234;-80
2023/03/11 02:56:24;;;;;;;2.00;1.15;;;;;;;5.19;55.67;98651.47;6210982;23;20549;-80
2023/03/11 02:58:50;;;;;;;2.20;1.20;;;;;;;5.14;55.83;98656.09;6213263;23;20183;-80
2023/03/11 03:01:15;;;;;;;1.67;1.00;;;;;;;5.07;56.04;98666.81;6184631;23;20211;-80
2023/03/11 03:03:43;;;;;;;1.02;0.93;;;;;;;5.03;56.13;98664.50;6208489;23;20215;-79
2023/03/11 03:06:09;;;;;;;1.20;0.90;;;;;;;4.97;56.08;98673.50;6209807;23;20172;-79
2023/03/11 03:08:34;;;;;;;2.13;1.40;;;;;;;4.96;55.98;98658.78;6181476;23;20188;-79
2023/03/11 03:11:00;;;;;;;1.70;1.30;;;;;;;4.93;56.21;98647.72;6209547;23;20201;-79
2023/03/11 03:13:26;;;;;;;3.53;1.87;;;;;;;4.92;56.28;98648.66;6181022;23;20577;-79
2023/03/11 03:15:53;;;;;;;2.33;1.30;;;;;;;4.93;56.31;98647.72;6181991;23;20636;-80
2023/03/11 03:18:19;;;;;;;1.97;1.20;;;;;;;4.96;56.53;98640.56;6207687;23;20185;-79
2023/03/11 03:20:45;;;;;;;1.63;1.00;;;;;;;5.02;56.11;98637.63;6183805;23;20412;-79
2023/03/11 03:23:10;;;;;;;1.50;1.40;;;;;;;5.05;56.24;98650.47;6205769;23;20789;-79
2023/03/11 03:25:35;;;;;;;2.43;1.60;;;;;;;5.07;56.20;98660.78;6210309;23;20174;-79
2023/03/11 03:28:05;;;;;;;1.85;1.63;;;;;;;5.06;56.10;98670.38;6156745;23;20343;-79
2023/03/11 03:30:33;;;;;;;1.90;1.70;;;;;;;5.03;56.54;98661.91;6179466;23;20259;-79
2023/03/11 03:32:59;;;;;;;1.60;1.50;;;;;;;5.02;56.64;98655.00;6192043;23;20303;-79
2023/03/11 03:35:25;;;;;;;1.67;1.58;;;;;;;5.03;56.90;98656.69;6180987;23;20228;-79
2023/03/11 03:38:11;;;;;;;1.88;1.13;;;;;;;4.99;56.90;98665.59;6206637;23;20257;-80
2023/03/11 03:40:38;;;;;;;1.77;1.45;;;;;;;4.97;57.23;98670.03;6182720;23;20178;-79
2023/03/11 03:43:05;;;;;;;1.77;1.10;;;;;;;4.94;57.19;98673.66;6183331;23;20296;-79
2023/03/11 03:45:31;;;;;;;1.02;0.95;;;;;;;4.92;57.66;98693.72;6209714;23;20204;-79
2023/03/11 03:47:57;;;;;;;1.70;1.17;;;;;;;4.90;57.38;98697.34;6212370;23;20173;-79
2023/03/11 03:50:24;;;;;;;2.08;1.83;;;;;;;4.90;57.72;98703.38;6180328;23;20606;-79
2023/03/11 03:52:51;;;;;;;1.23;1.13;;;;;;;4.91;57.97;98702.44;6207442;23;20205;-79
2023/03/11 03:55:19;;;;;;;2.72;1.55;;;;;;;4.90;57.63;98702.53;6184943;23;20689;-79
2023/03/11 03:57:44;;;;;;;4.10;1.70;;;;;;;4.82;57.73;98688.16;6182484;23;20176;-79
2023/03/11 04:00:12;;;;;;;1.50;1.33;;;;;;;4.80;57.93;98699.59;6184038;23;20184;-80
2023/03/11 04:02:42;;;;;;;1.40;1.30;;;;;;;4.79;57.70;98695.31;6149754;23;20540;-81
2023/03/11 04:05:17;;;;;;;3.22;1.42;;;;;;;4.77;57.90;98694.56;6136121;23;20168;-81
2023/03/11 04:07:42;;;;;;;3.50;1.40;;;;;;;4.79;58.21;98698.75;6157373;23;20219;-81
2023/03/11 04:10:09;;;;;;;2.50;1.53;;;;;;;4.85;57.82;98697.56;6157950;23;20413;-81
2023/03/11 04:12:35;;;;;;;37.50;35.13;;;;;;;4.88;57.69;98694.81;6160951;23;20488;-81
2023/03/11 04:15:00;;;;;;;2.70;2.10;;;;;;;4.87;57.94;98708.75;6160952;23;20264;-81
2023/03/11 04:17:26;;;;;;;2.23;1.40;;;;;;;4.86;57.76;98707.91;6160611;23;20628;-81
2023/03/11 04:19:54;;;;;;;1.98;1.10;;;;;;;4.83;57.59;98709.81;6160694;23;20838;-81
2023/03/11 04:22:19;;;;;;;1.90;1.33;;;;;;;4.81;57.77;98703.88;6163989;23;20198;-81
2023/03/11 04:24:44;;;;;;;1.20;1.10;;;;;;;4.80;57.81;98704.78;6163950;23;20191;-81
2023/03/11 04:27:10;;;;;;;1.40;1.27;;;;;;;4.77;58.05;98689.34;6161427;23;20179;-81
2023/03/11 04:29:38;;;;;;;1.80;1.30;;;;;;;4.74;58.05;98700.75;6183904;23;20216;-81
2023/03/11 04:32:04;;;;;;;1.63;1.30;;;;;;;4.71;58.23;98713.94;6185700;23;20198;-82
2023/03/11 04:34:30;;;;;;;2.35;1.35;;;;;;;4.69;58.19;98710.56;6184825;23;20660;-81
2023/03/11 04:36:55;;;;;;;2.07;1.87;;;;;;;4.68;58.11;98726.28;6159339;23;20287;-81
2023/03/11 04:39:26;;;;;;;1.50;1.40;;;;;;;4.65;58.01;98728.13;6158105;23;20181;-81
2023/03/11 04:41:53;;;;;;;5.13;1.25;;;;;;;4.64;57.74;98739.47;6158664;23;20197;-81
2023/03/11 04:44:21;;;;;;;1.42;0.82;;;;;;;4.57;57.76;98738.09;6157366;23;20211;-81
2023/03/11 04:46:48;;;;;;;1.67;1.10;;;;;;;4.54;57.61;98751.25;6156673;23;20265;-81
2023/03/11 04:49:14;;;;;;;1.87;1.77;;;;;;;4.55;57.79;98750.31;6156486;23;20194;-81
2023/03/11 04:51:39;;;;;;;2.00;1.40;;;;;;;4.56;57.78;98741.59;6157678;23;20226;-82
2023/03/11 04:54:06;;;;;;;1.42;1.25;;;;;;;4.56;58.00;98741.59;6157528;23;20205;-82
2023/03/11 04:56:32;;;;;;;1.60;0.98;;;;;;;4.54;57.58;98746.06;6180793;23;20186;-82
2023/03/11 04:58:57;;;;;;;0.80;0.80;;;;;;;4.47;57.41;98746.47;6155585;23;20587;-82
2023/03/11 05:01:24;;;;;;;2.00;1.15;;;;;;;4.47;57.48;98741.25;6155097;23;20221;-81
2023/03/11 05:03:49;;;;;;;1.50;1.23;;;;;;;4.48;57.47;98735.13;6155925;23;20605;-82
2023/03/11 05:06:15;;;;;;;2.80;1.00;;;;;;;4.49;57.42;98737.66;6153611;23;20181;-82
2023/03/11 05:08:40;;;;;;;1.50;1.20;;;;;;;4.49;57.56;98736.81;6154229;23;20571;-82
2023/03/11 05:11:07;;;;;;;1.50;1.30;;;;;;;4.51;57.29;98733.22;6149309;23;20186;-82
2023/03/11 05:13:33;;;;;;;1.40;1.00;;;;;;;4.44;57.31;98729.25;6148888;23;20178;-82
2023/03/11 05:15:59;;;;;;;1.60;1.20;;;;;;;4.37;57.27;98725.28;6180489;23;20186;-82
2023/03/11 05:18:25;;;;;;;1.60;1.50;;;;;;;4.28;57.41;98731.81;6181402;23;20205;-82
2023/03/11 05:20:51;;;;;;;2.33;1.40;;;;;;;4.20;57.57;98724.41;6177337;23;20594;-82
2023/03/11 05:23:20;;;;;;;1.40;1.13;;;;;;;4.14;57.59;98721.31;6176209;23;20421;-82
2023/03/11 05:25:45;;;;;;;4.53;1.43;;;;;;;4.13;57.89;98715.28;6151994;23;20159;-81
2023/03/11 05:28:10;;;;;;;1.73;1.10;;;;;;;4.15;57.53;98713.41;6180600;23;20178;-82
2023/03/11 05:30:41;;;;;;;3.13;1.20;;;;;;;4.17;57.67;98708.97;6157644;23;20513;-82
2023/03/11 05:33:07;;;;;;;2.83;1.95;;;;;;;4.18;57.79;98702.84;6157635;23;20201;-82
2023/03/11 05:35:33;;;;;;;1.63;1.13;;;;;;;4.22;57.61;98701.78;6179746;23;20161;-82
2023/03/11 05:37:58;;;;;;;1.97;1.30;;;;;;;4.25;57.64;98703.38;6156113;23;20544;-82
2023/03/11 05:40:26;;;;;;;1.38;1.25;;;;;;;4.28;57.50;98699.78;6181658;23;20159;-82
2023/03/11 05:42:52;;;;;;;2.40;1.20;;;;;;;4.30;57.67;98713.53;6154571;23;20175;-82
2023/03/11 05:45:17;;;;;;;2.50;1.93;;;;;;;4.26;57.76;98712.84;6154333;23;20158;-82
2023/03/11 05:47:46;;;;;;;1.23;1.13;;;;;;;4.24;57.98;98727.72;6184126;23;20150;-82
2023/03/11 05:50:13;;;;;;;2.95;1.10;;;;;;;4.21;57.98;98731.31;6154992;23;20159;-82
2023/03/11 05:52:40;;;;;;;1.80;1.70;;;;;;;4.17;58.00;98724.56;6155785;23;20645;-83
2023/03/11 05:55:08;;;;;;;3.17;1.33;;;;;;;4.14;57.88;98721.31;6155324;23;20162;-83
2023/03/11 05:57:34;;;;;;;1.42;1.10;;;;;;;4.11;58.13;98722.28;6179372;23;20186;-82
2023/03/11 05:59:59;;;;;;;1.90;1.20;;;;;;;4.12;58.13;98721.38;6157447;23;20158;-82
2023/03/11 06:02:25;;;;;;;1.23;1.00;;;;;;;4.16;57.73;98722.91;6182895;23;20453;-82
2023/03/11 06:04:50;;;;;;;2.90;1.20;;;;;;;4.19;58.00;98734.91;6156063;23;20597;-82
2023/03/11 06:07:16;;;;;;;1.73;1.17;;;;;;;4.17;57.98;98737.56;6180467;23;20237;-82
2023/03/11 06:09:44;;;;;;;2.35;1.55;;;;;;;4.16;57.96;98743.69;6155324;23;20173;-82
2023/03/11 06:12:14;;;;;;;1.75;1.38;;;;;;;4.17;57.95;98755.75;6159151;23;20190;-82
2023/03/11 06:14:53;;;;;;;1.73;1.63;;;;;;;4.18;58.01;98760.03;6159042;23;20184;-82
2023/03/11 06:17:18;;;;;;;1.90;1.40;;;;;;;4.18;58.15;98765.22;6158880;23;20249;-82
2023/03/11 06:19:44;;;;;;;1.47;0.90;;;;;;;4.20;58.09;98759.97;6157535;23;20416;-82
2023/03/11 06:22:09;;;;;;;6.37;2.83;;;;;;;4.21;58.02;98766.84;6156518;23;20527;-82
2023/03/11 06:24:35;;;;;;;17.83;11.10;;;;;;;4.24;58.13;98761.50;6181565;23;20189;-82
2023/03/11 06:27:01;;;;;;;11.25;6.18;;;;;;;4.26;58.27;98769.19;6182433;23;20589;-82
2023/03/11 06:29:28;;;;;;;4.60;2.58;;;;;;;4.24;58.09;98768.44;6161019;23;20612;-82
2023/03/11 06:31:54;;;;;;;3.87;2.50;;;;;;;4.25;58.30;98777.94;6157225;23;20194;-79
2023/03/11 06:34:20;;;;;;;4.53;1.90;;;;;;;4.26;58.03;98785.63;6153915;23;20752;-79
2023/03/11 06:36:46;;;;;;;1.70;1.23;;;;;;;4.28;58.21;98783.81;6178425;23;20166;-78
2023/03/11 06:39:13;;;;;;;1.10;1.00;;;;;;;4.31;58.25;98793.22;6154546;23;20163;-80
2023/03/11 06:41:39;;;;;;;4.03;2.40;;;;;;;4.35;58.04;98800.78;6180311;23;20237;-80
2023/03/11 06:44:06;;;;;;;1.52;1.42;;;;;;;4.39;58.01;98791.06;6180981;23;20165;-81
2023/03/11 06:46:33;;;;;;;1.85;1.45;;;;;;;4.44;57.84;98799.47;6152075;23;20498;-80
2023/03/11 06:48:58;;;;;;;3.27;1.20;;;;;;;4.47;57.67;98809.69;6180023;23;20158;-80
2023/03/11 06:51:23;;;;;;;1.20;1.10;;;;;;;4.50;57.80;98806.09;6154624;23;20266;-80
2023/03/11 06:53:51;;;;;;;1.57;1.10;;;;;;;4.55;57.73;98807.53;6177543;23;20540;-80
2023/03/11 06:56:20;;;;;;;1.55;1.08;;;;;;;4.60;57.36;98815.94;6152194;23;20158;-79
2023/03/11 06:58:50;;;;;;;1.65;1.05;;;;;;;4.59;56.70;98823.81;6152689;23;20246;-79
2023/03/11 07:01:21;;;;;;;3.05;1.05;;;;;;;4.54;56.46;98826.69;6154397;23;20167;-79
2023/03/11 07:03:49;;;;;;;2.55;1.40;;;;;;;4.51;56.59;98821.66;6113768;23;20627;-79
2023/03/11 07:06:21;;;;;;;2.70;1.00;;;;;;;4.48;56.13;98813.97;6153506;23;20180;-79
2023/03/11 07:08:48;;;;;;;1.45;1.20;;;;;;;4.45;56.04;98801.13;6153285;23;20618;-79
2023/03/11 07:11:16;;;;;;;2.95;1.90;;;;;;;4.45;56.07;98806.34;6180539;23;20205;-79
2023/03/11 07:13:42;;;;;;;1.67;1.00;;;;;;;4.44;55.77;98812.47;6153733;23;20660;-79
2023/03/11 07:16:17;;;;;;;2.63;1.20;;;;;;;4.44;55.79;98813.28;6181348;23;20241;-79
2023/03/11 07:18:44;;;;;;;3.15;1.55;;;;;;;4.43;55.75;98818.59;6179085;23;20442;-79
2023/03/11 07:21:14;;;;;;;3.28;1.20;;;;;;;4.43;55.80;98816.81;6180800;23;20205;-79
2023/03/11 07:23:39;;;;;;;0.95;0.80;;;;;;;4.41;55.64;98821.25;6183067;23;20182;-79
2023/03/11 07:30:45;;;;;;;;;;;;;;;;;;;;;
2023/03/11 07:33:40;;;;;;;4.20;0.90;;;;;;;4.43;55.39;98845.44;6092396;23;20196;-82
2023/03/11 07:36:08;;;;;;;4.33;1.23;;;;;;;4.42;55.26;98838.53;6183969;23;20206;-82
2023/03/11 07:38:34;;;;;;;1.20;1.10;;;;;;;4.42;55.27;98841.13;6185327;23;20170;-82
2023/03/11 07:41:00;;;;;;;1.10;0.90;;;;;;;4.38;55.08;98841.38;6184962;23;20513;-81
2023/03/11 07:43:26;;;;;;;1.13;1.00;;;;;;;4.33;55.07;98851.16;6183695;23;20213;-82
2023/03/11 07:45:51;;;;;;;2.63;1.10;;;;;;;4.24;55.15;98844.69;6185586;23;20409;-82
2023/03/11 07:48:17;;;;;;;1.10;1.00;;;;;;;4.22;55.24;98844.75;6185510;23;20181;-82
2023/03/11 07:50:42;;;;;;;2.80;1.57;;;;;;;4.22;54.99;98846.50;6182944;23;20178;-82
2023/03/11 07:53:08;;;;;;;1.20;1.10;;;;;;;4.18;54.90;98858.78;6185372;23;20206;-82
2023/03/11 07:55:33;;;;;;;1.43;1.00;;;;;;;4.21;55.00;98853.47;6182492;23;20186;-82
2023/03/11 07:57:59;;;;;;;3.27;1.50;;;;;;;4.25;54.81;98835.13;6183612;23;20185;-81
2023/03/11 08:00:24;;;;;;;2.30;1.50;;;;;;;4.22;54.60;98833.50;6184594;23;20181;-83
2023/03/11 08:02:50;;;;;;;1.27;1.10;;;;;;;4.27;54.61;98841.09;6184295;23;20246;-81
2023/03/11 08:05:17;;;;;;;1.73;1.20;;;;;;;4.36;54.26;98853.63;6184787;23;20474;-82
2023/03/11 08:07:43;;;;;;;3.50;1.10;;;;;;;4.46;54.26;98848.81;6184841;23;20647;-82
2023/03/11 08:10:09;;;;;;;10.20;1.30;;;;;;;4.53;54.11;98839.75;6185565;23;20204;-82
2023/03/11 08:12:34;;;;;;;1.83;1.10;;;;;;;4.58;53.70;98841.19;6185076;23;20202;-82
2023/03/11 08:15:01;;;;;;;3.08;1.30;;;;;;;4.66;53.38;98856.41;6185158;23;20209;-82
2023/03/11 08:17:26;;;;;;;7.87;2.00;;;;;;;4.72;52.63;98865.66;6184137;23;20169;-82
2023/03/11 08:19:52;;;;;;;3.50;1.27;;;;;;;4.78;52.55;98858.38;6156472;23;20175;-82
2023/03/11 08:22:17;;;;;;;1.50;0.87;;;;;;;4.90;52.47;98850.84;6157425;23;20280;-82
2023/03/11 08:24:42;;;;;;;1.33;1.00;;;;;;;4.94;51.94;98848.03;6157149;23;20604;-82
2023/03/11 08:27:08;;;;;;;3.43;2.17;;;;;;;5.00;51.82;98865.06;6180517;23;20236;-82
2023/03/11 08:29:34;;;;;;;1.10;1.00;;;;;;;5.10;51.58;98863.63;6181516;23;20198;-83
2023/03/11 08:31:59;;;;;;;3.53;1.30;;;;;;;5.11;50.05;98862.75;6185905;23;20203;-83
2023/03/11 08:34:26;;;;;;;1.30;0.90;;;;;;;5.13;50.01;98870.44;6184980;23;20408;-82
2023/03/11 08:36:52;;;;;;;2.25;1.13;;;;;;;5.24;49.95;98876.78;6184450;23;20182;-82
2023/03/11 08:39:17;;;;;;;1.10;1.00;;;;;;;5.64;48.78;98887.63;6183964;23;20209;-82
2023/03/11 08:41:42;;;;;;;2.83;1.00;;;;;;;6.39;47.23;98875.59;6182357;23;20194;-83
2023/03/11 08:44:08;;;;;;;6.07;1.10;;;;;;;7.23;44.84;98876.69;6181580;23;20221;-83
2023/03/11 08:46:36;;;;;;;2.50;0.80;;;;;;;7.96;42.51;98873.81;6179190;23;20520;-84
2023/03/11 08:49:03;;;;;;;2.83;1.27;;;;;;;8.64;40.92;98859.75;6178233;23;20178;-84
2023/03/11 08:51:31;;;;;;;2.65;1.30;;;;;;;9.27;39.76;98866.75;6177947;23;20552;-84
2023/03/11 08:53:56;;;;;;;3.72;2.17;;;;;;;9.85;38.95;98866.16;6176497;23;20621;-83
2023/03/11 08:56:22;;;;;;;2.80;1.50;;;;;;;10.11;37.15;98862.50;6175366;23;20176;-84
2023/03/11 08:58:48;;;;;;;2.00;1.07;;;;;;;10.24;36.85;98870.31;6176747;23;20348;-83
2023/03/11 09:01:13;;;;;;;2.50;1.23;;;;;;;10.81;36.23;98872.16;6176132;23;20154;-83
2023/03/11 09:03:38;;;;;;;3.83;1.30;;;;;;;11.56;35.22;98878.63;6176249;23;20158;-84
2023/03/11 09:06:07;;;;;;;4.93;1.30;;;;;;;12.13;34.70;98877.53;6175502;23;20659;-84
2023/03/11 09:08:33;;;;;;;1.77;1.17;;;;;;;12.57;33.52;98870.38;6173876;23;20635;-83
2023/03/11 09:10:58;;;;;;;3.17;1.00;;;;;;;12.75;33.33;98873.28;6176183;23;20178;-84
2023/03/11 09:13:24;;;;;;;5.17;1.10;;;;;;;13.21;33.08;98871.16;6148335;23;20266;-84
2023/03/11 09:15:50;;;;;;;1.90;1.23;;;;;;;13.73;32.04;98879.84;6174871;23;20167;-84
2023/03/11 09:18:16;;;;;;;4.50;1.00;;;;;;;13.99;31.34;98874.03;6174625;23;20158;-85
2023/03/11 09:20:42;;;;;;;1.33;0.80;;;;;;;14.14;29.70;98885.88;6179545;23;20476;-85
2023/03/11 09:23:09;;;;;;;2.80;1.30;;;;;;;14.28;28.36;98885.44;6175049;23;21029;-85
2023/03/11 09:25:35;;;;;;;6.30;1.63;;;;;;;14.29;28.59;98887.13;6175927;23;20908;-85
2023/03/11 09:28:00;;;;;;;3.13;0.87;;;;;;;14.28;28.63;98885.44;6176259;23;20446;-85
2023/03/11 09:30:26;;;;;;;3.63;1.23;;;;;;;14.23;28.92;98887.69;6150096;23;20162;-84
2023/03/11 09:32:52;;;;;;;3.25;0.88;;;;;;;13.95;29.20;98891.94;6175430;23;20632;-84
2023/03/11 09:35:17;;;;;;;1.30;0.90;;;;;;;13.55;29.72;98889.34;6177320;23;20158;-84
2023/03/11 09:37:43;;;;;;;1.00;0.90;;;;;;;13.36;30.30;98890.94;6176046;23;20217;-81
2023/03/11 09:40:14;;;;;;;2.33;1.30;;;;;;;13.15;30.48;98895.41;6179441;23;20172;-84
2023/03/11 09:42:58;;;;;;;1.42;1.20;;;;;;;12.74;30.53;98905.84;6148448;23;20486;-84
2023/03/11 09:45:26;;;;;;;3.25;1.65;;;;;;;12.01;31.33;98904.00;6177803;23;20159;-83
2023/03/11 09:48:06;;;;;;;2.10;1.20;;;;;;;11.34;32.17;98910.16;6176911;23;20190;-83
2023/03/11 09:50:34;;;;;;;1.85;1.20;;;;;;;11.01;32.69;98896.88;6178319;23;20213;-83
2023/03/11 09:53:21;;;;;;;2.83;1.10;;;;;;;10.97;33.19;98895.47;6178686;23;20772;-84
2023/03/11 09:55:52;;;;;;;1.42;1.08;;;;;;;10.94;33.55;98892.25;6177618;23;20174;-84
2023/03/11 09:58:47;;;;;;;2.00;1.00;;;;;;;10.80;33.96;98886.25;6177167;23;21022;-84
2023/03/11 10:01:19;;;;;;;5.20;1.63;;;;;;;10.79;33.82;98883.72;6175479;23;20258;-84
2023/03/11 10:03:46;;;;;;;1.75;0.90;;;;;;;10.78;33.96;98892.56;6150351;23;20659;-84
2023/03/11 10:06:15;;;;;;;1.85;1.08;;;;;;;10.62;33.89;98890.25;6153916;23;20242;-84
2023/03/11 10:24:00;;;;;;;4.85;1.70;;;;;;;10.40;33.67;98878.75;6177715;23;20233;-84
2023/03/11 10:26:35;;;;;;;1.35;0.90;;;;;;;10.36;33.67;98882.53;6177955;23;20182;-84
2023/03/11 10:29:25;;;;;;;2.88;1.00;;;;;;;10.28;33.61;98879.63;6176350;23;20534;-84
2023/03/11 10:31:56;;;;;;;1.38;1.10;;;;;;;10.16;33.41;98881.34;6186722;23;20742;-84
2023/03/11 10:34:31;;;;;;;1.50;1.33;;;;;;;10.23;33.46;98880.91;6208800;23;20503;-84
2023/03/11 10:37:10;;;;;;;6.03;2.22;;;;;;;10.23;33.56;98886.16;6206920;23;20184;-84
2023/03/11 10:39:37;;;;;;;10.20;1.25;;;;;;;10.21;33.42;98896.78;6205491;23;20187;-84
2023/03/11 10:42:05;;;;;;;3.38;1.40;;;;;;;10.25;33.56;98890.34;6205601;23;20253;-84
2023/03/11 10:44:38;;;;;;;7.65;1.65;;;;;;;10.35;33.40;98888.75;6206856;23;20182;-84
2023/03/11 10:47:31;;;;;;;1.50;1.20;;;;;;;10.39;33.28;98886.72;6208119;23;20188;-84
2023/03/11 10:50:09;;;;;;;3.33;1.10;;;;;;;10.28;32.90;98874.38;6215800;23;20196;-85
2023/03/11 10:53:01;;;;;;;1.40;1.23;;;;;;;10.20;33.56;98869.66;6204500;23;20209;-86
2023/03/11 10:55:27;;;;;;;1.77;1.10;;;;;;;10.10;33.66;98880.97;6206052;23;20173;-83
2023/03/11 10:58:10;;;;;;;1.00;0.90;;;;;;;9.92;32.64;98868.25;6206229;23;20264;-83
2023/03/11 11:00:35;;;;;;;1.80;1.02;;;;;;;9.69;32.68;98874.31;6206645;23;20174;-83
2023/03/11 11:03:03;;;;;;;3.10;1.50;;;;;;;9.75;33.39;98876.50;6208154;23;20177;-83
2023/03/11 11:05:35;;;;;;;3.33;1.25;;;;;;;9.84;33.63;98875.84;6207231;23;20468;-84
2023/03/11 11:08:12;;;;;;;3.60;1.33;;;;;;;9.92;33.42;98860.38;6208845;23;20188;-84
2023/03/11 11:10:50;;;;;;;1.40;1.10;;;;;;;10.00;33.48;98861.63;6207789;23;20327;-84
2023/03/11 11:13:20;;;;;;;2.15;1.08;;;;;;;10.00;33.14;98865.06;6202256;23;20256;-84
2023/03/11 11:16:04;;;;;;;2.80;1.25;;;;;;;10.00;33.42;98867.69;6205885;23;20178;-85
2023/03/11 11:18:44;;;;;;;2.65;0.98;;;;;;;9.96;32.78;98871.47;6207365;23;20184;-84
2023/03/11 11:21:14;;;;;;;4.00;1.13;;;;;;;9.77;32.70;98869.34;6206173;23;20240;-85
2023/03/11 11:23:48;;;;;;;1.33;0.90;;;;;;;9.66;33.02;98875.34;6207348;23;20308;-84
2023/03/11 11:26:23;;;;;;;1.63;0.90;;;;;;;9.57;33.32;98877.81;6207777;23;20233;-85
2023/03/11 11:29:05;;;;;;;1.83;1.08;;;;;;;9.45;33.21;98884.75;6207627;23;20513;-84
2023/03/11 11:31:30;;;;;;;2.45;1.00;;;;;;;9.40;33.54;98881.63;6181857;23;20201;-85
2023/03/11 11:33:56;;;;;;;1.58;1.08;;;;;;;9.28;33.50;98875.47;6179742;23;20381;-84
2023/03/11 11:36:27;;;;;;;2.73;1.20;;;;;;;9.13;33.66;98884.38;6209030;23;20257;-84
2023/03/11 11:38:53;;;;;;;4.72;1.17;;;;;;;9.02;33.67;98878.13;6178233;23;20189;-84
2023/03/11 11:41:22;;;;;;;2.70;1.33;;;;;;;9.03;33.57;98879.78;6206256;23;20197;-83
2023/03/11 11:43:57;;;;;;;2.03;1.00;;;;;;;9.09;33.34;98879.34;6205943;23;20420;-84
2023/03/11 11:46:48;;;;;;;4.65;2.33;;;;;;;9.20;33.74;98872.53;6205519;23;20174;-84
2023/03/11 11:49:22;;;;;;;1.20;0.80;;;;;;;9.23;33.67;98873.16;6208753;23;20177;-83
2023/03/11 11:51:54;;;;;;;2.30;1.10;;;;;;;9.15;33.69;98880.72;6208261;23;20743;-84
2023/03/11 11:54:41;;;;;;;1.23;1.00;;;;;;;9.09;33.67;98881.97;6207384;23;20201;-83
2023/03/11 11:57:15;;;;;;;5.57;1.23;;;;;;;9.14;33.64;98875.59;6209480;23;20174;-83
2023/03/11 11:59:41;;;;;;;3.30;1.50;;;;;;;9.16;33.73;98881.56;6208809;23;20181;-83
2023/03/11 12:02:35;;;;;;;5.22;3.22;;;;;;;9.29;33.38;98877.97;6200938;23;20232;-84
2023/03/11 12:05:16;;;;;;;2.17;1.50;;;;;;;9.48;33.23;98871.44;6209301;23;20736;-85
2023/03/11 12:08:16;;;;;;;2.25;1.00;;;;;;;9.57;32.50;98856.84;6207190;23;20196;-83